Bankston, Iowa
Current Conditions -  °F | °C
As of 3:53 AM on Thursday 23 Oct 2014 (Local Time) from KDBQ Reporting Station
Broken Clouds Broken Clouds  
Wind Chill: 38°   Ceiling: 9000
Heat Index: 44°   Visibility: 10mi
Dew Point: 37°   Wind: 13mph
Humidity: 76%   Direction: 210°SSW
Pressure: 30.15"   Gusts: NA
Location:  42.4445°N, 90.9251°W
Report Text: KDBQ 230853Z AUTO 21011KT 10SM BKN090 07/03 A3015 RMK AO2 SLP213 T00670028 55005
Loading
Personal Weather Stations






























Interactive Weather Map
Tropical Storm Tracking
New forecast layout! Learn more

10-Day Weather Forecast

Advertisements
Track Severe Weather on mobile